createdAt,value
2023-10-29T00:00:26.351Z,98700.03
2023-10-29T00:02:54.837Z,98702.94
2023-10-29T00:05:23.237Z,98698.81
2023-10-29T00:07:51.596Z,98692.78
2023-10-29T00:10:20.339Z,98685.09
2023-10-29T00:12:48.804Z,98687.53
2023-10-29T00:15:17.652Z,98685.59
2023-10-29T00:17:46.082Z,98679.00
2023-10-29T00:20:14.322Z,98663.41
2023-10-29T00:22:42.837Z,98647.94
2023-10-29T00:25:11.250Z,98652.81
2023-10-29T00:27:39.644Z,98640.91
2023-10-29T00:30:08.542Z,98637.41
2023-10-29T00:32:37.187Z,98644.59
2023-10-29T00:35:06.111Z,98648.66
2023-10-29T00:37:34.420Z,98636.19
2023-10-29T00:40:03.588Z,98629.44
2023-10-29T00:42:32.869Z,98641.41
2023-10-29T00:45:01.278Z,98635.91
2023-10-29T00:47:30.140Z,98636.28
2023-10-29T00:49:58.496Z,98636.69
2023-10-29T00:52:28.154Z,98630.19
2023-10-29T00:54:56.988Z,98629.94
2023-10-29T00:57:25.523Z,98616.56
2023-10-29T00:59:54.066Z,98599.81
2023-10-29T01:02:22.663Z,98590.78
2023-10-29T01:04:50.981Z,98593.56
2023-10-29T01:07:19.430Z,98593.56
2023-10-29T01:09:47.769Z,98592.03
2023-10-29T01:12:18.110Z,98578.16
2023-10-29T01:14:46.900Z,98578.06
2023-10-29T01:17:16.803Z,98581.25
2023-10-29T01:19:45.050Z,98568.28
2023-10-29T01:22:13.566Z,98577.72
2023-10-29T01:24:42.089Z,98568.88
2023-10-29T01:27:11.440Z,98561.84
2023-10-29T01:29:39.753Z,98557.84
2023-10-29T01:32:08.293Z,98550.91
2023-10-29T01:34:36.580Z,98547.69
2023-10-29T01:37:05.275Z,98545.28
2023-10-29T01:39:33.625Z,98534.06
2023-10-29T01:42:02.258Z,98543.00
2023-10-29T01:44:30.626Z,98523.97
2023-10-29T01:46:58.949Z,98522.84
2023-10-29T01:49:27.240Z,98532.19
2023-10-29T01:51:55.642Z,98515.56
2023-10-29T01:54:24.280Z,98531.44
2023-10-29T01:56:53.164Z,98520.72
2023-10-29T01:59:21.736Z,98514.81
2023-10-29T02:01:51.670Z,98519.16
2023-10-29T02:04:21.990Z,98516.13
2023-10-29T02:06:50.252Z,98504.09
2023-10-29T02:09:19.776Z,98514.78
2023-10-29T02:11:48.184Z,98519.13
2023-10-29T02:14:16.586Z,98511.03
2023-10-29T02:16:44.985Z,98498.00
2023-10-29T02:19:13.388Z,98482.38
2023-10-29T02:21:41.953Z,98469.41
2023-10-29T02:24:10.575Z,98464.66
2023-10-29T02:26:38.929Z,98459.88
2023-10-29T02:29:07.746Z,98451.31
2023-10-29T02:31:36.013Z,98452.63
2023-10-29T02:34:04.273Z,98460.00
2023-10-29T02:36:32.710Z,98446.38
2023-10-29T02:39:00.938Z,98447.16
2023-10-29T02:41:29.250Z,98447.53
2023-10-29T02:43:59.413Z,98446.34
2023-10-29T02:46:27.811Z,98440.22
2023-10-29T02:48:56.139Z,98439.88
2023-10-29T02:51:24.535Z,98431.31
2023-10-29T02:53:52.849Z,98420.09
2023-10-29T02:56:21.136Z,98417.47
2023-10-29T02:58:49.480Z,98402.72
2023-10-29T03:01:18.062Z,98417.72
2023-10-29T03:03:46.823Z,98400.66
2023-10-29T03:06:15.715Z,98410.66
2023-10-29T03:08:45.588Z,98403.78
2023-10-29T03:11:14.073Z,98401.91
2023-10-29T03:13:42.472Z,98406.69
2023-10-29T03:16:10.845Z,98402.97
2023-10-29T03:18:39.422Z,98385.56
2023-10-29T03:21:08.112Z,98395.41
2023-10-29T03:23:36.360Z,98397.28
2023-10-29T03:26:05.029Z,98382.94
2023-10-29T03:28:33.583Z,98365.13
2023-10-29T03:31:02.352Z,98363.00
2023-10-29T03:33:30.751Z,98369.44
2023-10-29T03:36:05.497Z,98363.00
2023-10-29T03:38:34.363Z,98362.97
2023-10-29T03:41:03.420Z,98357.13
2023-10-29T03:43:32.979Z,98349.06
2023-10-29T03:46:01.565Z,98351.59
2023-10-29T03:48:29.862Z,98353.56
2023-10-29T03:51:03.342Z,98359.38
2023-10-29T03:53:31.872Z,98360.69
2023-10-29T03:56:01.963Z,98361.59
2023-10-29T03:58:33.003Z,98363.22
2023-10-29T04:01:02.863Z,98357.66
2023-10-29T04:03:31.533Z,98364.84
2023-10-29T04:05:59.893Z,98376.78
2023-10-29T04:08:29.162Z,98372.78
2023-10-29T04:10:57.667Z,98371.19
2023-10-29T04:13:26.152Z,98369.19
2023-10-29T04:15:54.408Z,98349.78
2023-10-29T04:18:25.866Z,98368.09
2023-10-29T04:20:55.306Z,98352.94
2023-10-29T04:23:23.789Z,98341.03
2023-10-29T04:25:52.032Z,98356.44
2023-10-29T04:28:20.527Z,98360.97
2023-10-29T04:30:51.444Z,98352.94
2023-10-29T04:33:19.942Z,98367.22
2023-10-29T04:35:48.369Z,98368.09
2023-10-29T04:38:16.678Z,98355.72
2023-10-29T04:40:45.387Z,98353.88
2023-10-29T04:43:14.048Z,98359.81
2023-10-29T04:45:42.284Z,98368.78
2023-10-29T04:48:11.169Z,98359.38
2023-10-29T04:50:40.887Z,98374.53
2023-10-29T04:53:09.291Z,98373.25
2023-10-29T04:55:37.837Z,98381.63
2023-10-29T04:58:07.390Z,98372.22
2023-10-29T05:00:35.769Z,98365.88
2023-10-29T05:03:04.141Z,98355.56
2023-10-29T05:05:32.616Z,98340.09
2023-10-29T05:08:01.248Z,98355.91
2023-10-29T05:10:29.803Z,98365.84
2023-10-29T05:12:58.017Z,98363.50
2023-10-29T05:15:26.545Z,98372.53
2023-10-29T05:17:54.927Z,98367.41
2023-10-29T05:20:23.681Z,98367.06
2023-10-29T05:22:52.052Z,98381.34
2023-10-29T05:25:20.491Z,98381.72
2023-10-29T05:27:56.720Z,98376.19
2023-10-29T05:30:25.166Z,98389.66
2023-10-29T05:32:53.983Z,98376.91
2023-10-29T05:35:22.299Z,98380.09
2023-10-29T05:37:50.697Z,98377.78
2023-10-29T05:40:19.085Z,98376.56
2023-10-29T05:42:47.389Z,98363.50
2023-10-29T05:45:15.835Z,98364.34
2023-10-29T05:47:44.318Z,98362.66
2023-10-29T05:50:12.698Z,98368.97
2023-10-29T05:52:41.171Z,98377.00
2023-10-29T05:55:09.485Z,98373.88
2023-10-29T05:57:37.768Z,98372.97
2023-10-29T06:00:06.952Z,98372.63
2023-10-29T06:02:40.443Z,98382.47
2023-10-29T06:05:09.077Z,98386.38
2023-10-29T06:07:38.283Z,98380.13
2023-10-29T06:10:07.263Z,98394.47
2023-10-29T06:12:36.743Z,98405.88
2023-10-29T06:15:05.742Z,98408.72
2023-10-29T06:17:34.786Z,98398.22
2023-10-29T06:20:06.025Z,98393.59
2023-10-29T06:22:34.668Z,98393.63
2023-10-29T06:25:06.780Z,98386.22
2023-10-29T06:27:36.031Z,98397.00
2023-10-29T06:30:05.503Z,98387.31
2023-10-29T06:32:37.064Z,98396.03
2023-10-29T06:35:07.264Z,98407.56
2023-10-29T06:37:35.681Z,98404.75
2023-10-29T06:40:13.315Z,98401.69
2023-10-29T06:42:44.351Z,98408.94
2023-10-29T06:45:31.488Z,98416.88
2023-10-29T06:48:00.959Z,98421.13
2023-10-29T06:50:31.378Z,98422.81
2023-10-29T06:53:08.796Z,98414.34
2023-10-29T06:55:41.202Z,98392.13
2023-10-29T06:58:09.619Z,98399.38
2023-10-29T07:00:38.244Z,98416.88
2023-10-29T07:03:06.763Z,98421.63
2023-10-29T07:05:36.107Z,98440.31
2023-10-29T07:08:04.593Z,98425.63
2023-10-29T07:10:32.909Z,98437.50
2023-10-29T07:13:01.148Z,98432.41
2023-10-29T07:15:29.416Z,98426.03
2023-10-29T07:17:57.918Z,98431.97
2023-10-29T07:20:26.243Z,98439.91
2023-10-29T07:22:58.185Z,98432.34
2023-10-29T07:25:26.495Z,98432.03
2023-10-29T07:27:54.768Z,98431.94
2023-10-29T07:30:23.105Z,98428.81
2023-10-29T07:32:52.071Z,98423.94
2023-10-29T07:35:23.608Z,98436.00
2023-10-29T07:37:55.155Z,98445.47
2023-10-29T07:40:23.403Z,98441.50
2023-10-29T07:42:58.389Z,98465.69
2023-10-29T07:45:29.958Z,98451.91
2023-10-29T07:47:58.435Z,98455.81
2023-10-29T07:50:27.903Z,98463.81
2023-10-29T07:52:56.848Z,98462.28
2023-10-29T07:55:26.139Z,98467.84
2023-10-29T07:57:54.497Z,98472.59
2023-10-29T08:00:22.770Z,98486.09
2023-10-29T08:02:51.860Z,98476.19
2023-10-29T08:05:21.412Z,98468.53
2023-10-29T08:07:49.772Z,98487.59
2023-10-29T08:10:18.114Z,98489.97
2023-10-29T08:12:46.494Z,98484.91
2023-10-29T08:15:15.284Z,98486.13
2023-10-29T08:17:43.807Z,98484.06
2023-10-29T08:20:12.823Z,98486.84
2023-10-29T08:22:46.218Z,98472.25
2023-10-29T08:25:14.755Z,98459.94
2023-10-29T08:27:43.008Z,98473.50
2023-10-29T08:30:12.252Z,98492.59
2023-10-29T08:32:46.255Z,98482.22
2023-10-29T08:35:22.366Z,98520.03
2023-10-29T08:37:56.648Z,98518.41
2023-10-29T08:40:29.469Z,98497.31
2023-10-29T08:43:00.793Z,98528.34
2023-10-29T08:45:54.084Z,98546.25
2023-10-29T08:48:24.828Z,98566.66
2023-10-29T08:50:58.713Z,98566.72
2023-10-29T08:53:27.039Z,98564.25
2023-10-29T08:55:55.609Z,98577.09
2023-10-29T08:58:26.105Z,98572.34
2023-10-29T09:00:58.660Z,98566.78
2023-10-29T09:03:27.619Z,98574.34
2023-10-29T09:06:05.140Z,98560.41
2023-10-29T09:08:38.937Z,98556.41
2023-10-29T09:11:16.584Z,98547.63
2023-10-29T09:13:45.167Z,98551.25
2023-10-29T09:16:14.489Z,98552.03
2023-10-29T09:18:43.717Z,98563.19
2023-10-29T09:21:12.578Z,98590.69
2023-10-29T09:23:40.997Z,98570.75
2023-10-29T09:26:09.394Z,98574.75
2023-10-29T09:28:38.135Z,98576.31
2023-10-29T09:31:06.372Z,98594.66
2023-10-29T09:33:34.775Z,98593.03
2023-10-29T09:36:04.204Z,98602.41
2023-10-29T09:38:32.636Z,98599.81
2023-10-29T09:41:01.023Z,98611.78
2023-10-29T09:43:39.578Z,98613.38
2023-10-29T09:46:08.238Z,98654.31
2023-10-29T09:48:38.751Z,98637.66
2023-10-29T09:51:07.985Z,98659.84
2023-10-29T09:53:38.530Z,98650.78
2023-10-29T09:56:10.296Z,98669.47
2023-10-29T09:58:39.959Z,98651.16
2023-10-29T10:01:09.366Z,98648.28
2023-10-29T10:03:38.563Z,98655.13
2023-10-29T10:06:08.450Z,98657.22
2023-10-29T10:08:36.908Z,98657.59
2023-10-29T10:11:06.479Z,98657.66
2023-10-29T10:13:42.819Z,98671.56
2023-10-29T10:16:16.427Z,98687.94
2023-10-29T10:18:59.176Z,98679.97
2023-10-29T10:21:45.002Z,98675.56
2023-10-29T10:24:13.855Z,98675.97
2023-10-29T10:26:43.457Z,98671.59
2023-10-29T10:29:14.089Z,98680.75
2023-10-29T10:31:42.987Z,98677.16
2023-10-29T10:34:19.359Z,98673.59
2023-10-29T10:36:54.261Z,98669.19
2023-10-29T10:39:26.825Z,98655.22
2023-10-29T10:44:24.600Z,98661.25
2023-10-29T10:46:55.926Z,98661.63
2023-10-29T10:49:25.734Z,98672.75
2023-10-29T10:51:59.562Z,98680.75
2023-10-29T10:54:28.279Z,98677.91
2023-10-29T10:56:57.828Z,98666.41
2023-10-29T10:59:26.448Z,98660.00
2023-10-29T11:01:55.412Z,98655.81
2023-10-29T11:04:27.711Z,98650.25
2023-10-29T11:06:58.604Z,98653.97
2023-10-29T11:09:29.054Z,98657.59
2023-10-29T11:12:00.684Z,98670.25
2023-10-29T11:14:29.142Z,98676.50
2023-10-29T11:17:00.045Z,98674.09
2023-10-29T11:19:48.020Z,98654.31
2023-10-29T11:22:22.726Z,98658.47
2023-10-29T11:25:09.966Z,98632.59
2023-10-29T11:27:44.406Z,98628.53
2023-10-29T11:30:18.907Z,98632.03
2023-10-29T11:33:19.316Z,98656.13
2023-10-29T11:35:48.219Z,98649.25
2023-10-29T11:38:37.774Z,98654.47
2023-10-29T11:41:37.631Z,98652.38
2023-10-29T11:44:31.148Z,98664.22
2023-10-29T11:47:04.153Z,98704.94
2023-10-29T11:49:57.712Z,98673.84
2023-10-29T11:52:41.928Z,98673.47
2023-10-29T11:55:12.177Z,98666.91
2023-10-29T11:57:48.581Z,98661.84
2023-10-29T12:00:23.010Z,98665.44
2023-10-29T12:03:23.468Z,98644.41
2023-10-29T12:05:56.412Z,98643.78
2023-10-29T12:08:26.726Z,98637.16
2023-10-29T12:11:06.431Z,98652.50
2023-10-29T12:13:44.761Z,98651.38
2023-10-29T12:16:16.986Z,98647.66
2023-10-29T12:18:51.535Z,98644.84
2023-10-29T12:21:23.015Z,98650.16
2023-10-29T12:23:52.371Z,98661.56
2023-10-29T12:26:29.366Z,98653.25
2023-10-29T12:29:03.438Z,98648.50
2023-10-29T12:31:31.690Z,98636.44
2023-10-29T12:34:02.052Z,98630.91
2023-10-29T12:36:30.515Z,98635.84
2023-10-29T12:38:59.423Z,98650.22
2023-10-29T12:41:33.788Z,98632.16
2023-10-29T12:44:03.672Z,98611.75
2023-10-29T12:46:51.125Z,98607.88
2023-10-29T12:49:26.961Z,98623.31
2023-10-29T12:52:19.468Z,98632.97
2023-10-29T12:54:48.050Z,98622.72
2023-10-29T12:57:29.466Z,98614.03
2023-10-29T12:59:57.779Z,98608.88
2023-10-29T13:02:28.417Z,98601.50
2023-10-29T13:05:03.091Z,98622.97
2023-10-29T13:07:36.464Z,98613.53
2023-10-29T13:10:08.352Z,98613.91
2023-10-29T13:12:43.973Z,98606.38
2023-10-29T13:15:13.593Z,98617.53
2023-10-29T13:17:42.246Z,98617.16
2023-10-29T13:20:12.971Z,98595.06
2023-10-29T13:22:42.803Z,98573.22
2023-10-29T13:25:15.977Z,98557.13
2023-10-29T13:27:44.409Z,98575.00
2023-10-29T13:30:13.271Z,98581.41
2023-10-29T13:32:41.606Z,98570.56
2023-10-29T13:35:10.213Z,98572.69
2023-10-29T13:37:38.594Z,98570.63
2023-10-29T13:40:07.944Z,98571.19
2023-10-29T13:42:36.239Z,98557.19
2023-10-29T13:45:05.356Z,98547.00
2023-10-29T13:47:33.670Z,98551.88
2023-10-29T13:50:06.329Z,98561.75
2023-10-29T13:52:34.745Z,98570.06
2023-10-29T13:55:07.534Z,98576.97
2023-10-29T13:57:43.279Z,98593.41
2023-10-29T14:00:13.851Z,98595.44
2023-10-29T14:02:44.643Z,98587.88
2023-10-29T14:05:15.772Z,98583.50
2023-10-29T14:07:44.202Z,98565.50
2023-10-29T14:10:12.453Z,98557.97
2023-10-29T14:12:44.488Z,98572.28
2023-10-29T14:15:21.621Z,98581.06
2023-10-29T14:17:50.050Z,98557.44
2023-10-29T14:20:18.402Z,98543.56
2023-10-29T14:22:47.961Z,98554.69
2023-10-29T14:25:18.783Z,98547.50
2023-10-29T14:27:52.358Z,98543.50
2023-10-29T14:30:20.764Z,98555.56
2023-10-29T14:32:53.982Z,98546.03
2023-10-29T14:35:22.374Z,98547.63
2023-10-29T14:38:22.231Z,98554.41
2023-10-29T14:41:01.074Z,98565.88
2023-10-29T14:43:29.554Z,98560.69
2023-10-29T14:46:04.414Z,98561.06
2023-10-29T14:48:36.535Z,98570.59
2023-10-29T14:51:09.348Z,98552.31
2023-10-29T14:53:49.758Z,98562.22
2023-10-29T14:56:22.761Z,98561.03
2023-10-29T14:58:51.132Z,98572.09
2023-10-29T15:01:19.593Z,98553.91
2023-10-29T15:03:51.104Z,98529.19
2023-10-29T15:06:22.279Z,98537.22
2023-10-29T15:08:59.534Z,98555.03
2023-10-29T15:11:38.568Z,98536.44
2023-10-29T15:14:10.376Z,98536.44
2023-10-29T15:16:39.547Z,98526.94
2023-10-29T15:19:18.727Z,98497.44
2023-10-29T15:21:57.672Z,98502.97
2023-10-29T15:24:26.017Z,98498.16
2023-10-29T15:27:03.930Z,98485.03
2023-10-29T15:29:32.254Z,98489.41
2023-10-29T15:32:18.593Z,98498.19
2023-10-29T15:34:57.072Z,98494.25
2023-10-29T15:37:37.151Z,98487.41
2023-10-29T15:40:14.781Z,98482.28
2023-10-29T15:42:45.732Z,98484.66
2023-10-29T15:45:47.524Z,98490.25
2023-10-29T15:48:25.210Z,98485.47
2023-10-29T15:50:59.514Z,98481.47
2023-10-29T15:53:30.918Z,98462.34
2023-10-29T15:56:13.458Z,98455.59
2023-10-29T15:58:52.180Z,98445.66
2023-10-29T16:01:33.861Z,98440.06
2023-10-29T16:04:24.091Z,98448.00
2023-10-29T16:06:55.156Z,98435.69
2023-10-29T16:09:31.894Z,98440.41
2023-10-29T16:12:06.209Z,98442.06
2023-10-29T16:14:44.292Z,98440.06
2023-10-29T16:17:12.492Z,98442.00
2023-10-29T16:19:40.721Z,98445.63
2023-10-29T16:22:09.986Z,98449.09
2023-10-29T16:24:39.409Z,98463.81
2023-10-29T16:27:13.605Z,98476.56
2023-10-29T16:29:41.985Z,98486.81
2023-10-29T16:32:20.583Z,98495.94
2023-10-29T16:34:59.062Z,98490.69
2023-10-29T16:37:52.158Z,98486.91
2023-10-29T16:40:23.666Z,98462.25
2023-10-29T16:42:52.486Z,98466.28
2023-10-29T16:45:24.229Z,98547.84
2023-10-29T16:47:53.973Z,98562.63
2023-10-29T16:50:25.687Z,98585.03
2023-10-29T16:52:59.317Z,98578.66
2023-10-29T16:55:36.969Z,98568.84
2023-10-29T16:58:07.961Z,98568.56
2023-10-29T17:00:38.141Z,98578.53
2023-10-29T17:03:33.677Z,98593.88
2023-10-29T17:06:09.228Z,98578.22
2023-10-29T17:08:37.627Z,98594.75
2023-10-29T17:11:31.657Z,98598.97
2023-10-29T17:14:09.386Z,98593.72
2023-10-29T17:16:37.788Z,98612.63
2023-10-29T17:19:06.029Z,98601.16
2023-10-29T17:21:46.637Z,98613.44
2023-10-29T17:24:14.988Z,98610.34
2023-10-29T17:26:49.731Z,98614.50
2023-10-29T17:29:17.955Z,98618.81
2023-10-29T17:31:49.479Z,98621.75
2023-10-29T17:34:21.039Z,98624.06
2023-10-29T17:36:50.123Z,98619.25
2023-10-29T17:39:20.858Z,98633.06
2023-10-29T17:41:49.797Z,68092.72
2023-10-29T17:44:18.020Z,68092.72
2023-10-29T17:46:46.409Z,68092.72
2023-10-29T17:49:20.621Z,98644.06
2023-10-29T17:51:55.012Z,98630.66
2023-10-29T17:54:24.865Z,98635.34
2023-10-29T17:56:56.488Z,98646.03
2023-10-29T17:59:26.613Z,98642.34
2023-10-29T18:01:54.980Z,98643.22
2023-10-29T18:04:23.752Z,98649.28
2023-10-29T18:06:52.316Z,98649.00
2023-10-29T18:09:20.730Z,98659.59
2023-10-29T18:11:54.748Z,98648.13
2023-10-29T18:14:23.499Z,98648.41
2023-10-29T18:16:55.376Z,98658.66
2023-10-29T18:19:23.671Z,98654.91
2023-10-29T18:21:51.895Z,98661.22
2023-10-29T18:24:22.561Z,98653.31
2023-10-29T18:26:52.724Z,98661.81
2023-10-29T18:29:31.602Z,98667.38
2023-10-29T18:32:02.506Z,98652.56
2023-10-29T18:34:58.417Z,98647.19
2023-10-29T18:37:39.047Z,98651.00
2023-10-29T18:40:10.685Z,98657.34
2023-10-29T18:42:39.059Z,98639.00
2023-10-29T18:45:10.693Z,98649.94
2023-10-29T18:47:39.019Z,98658.19
2023-10-29T18:50:07.831Z,98659.28
2023-10-29T18:52:36.175Z,98660.31
2023-10-29T18:55:07.942Z,98656.16
2023-10-29T18:57:36.335Z,98656.81
2023-10-29T19:00:05.749Z,98654.00
2023-10-29T19:02:59.238Z,98658.09
2023-10-29T19:05:27.834Z,98670.84
2023-10-29T19:07:57.835Z,98662.13
2023-10-29T19:10:30.602Z,98671.56
2023-10-29T19:13:09.026Z,98666.09
2023-10-29T19:15:37.327Z,98664.03
2023-10-29T19:18:08.551Z,68092.72
2023-10-29T19:20:42.409Z,68092.72
2023-10-29T19:23:10.893Z,68092.72
2023-10-29T19:25:39.535Z,68092.72
2023-10-29T19:28:09.314Z,68092.72
2023-10-29T19:31:00.073Z,68092.72
2023-10-29T19:33:43.340Z,68092.72
2023-10-29T19:36:20.930Z,68092.72
2023-10-29T19:38:55.736Z,68092.72
2023-10-29T19:41:27.351Z,68092.72
2023-10-29T19:43:55.696Z,68092.72
2023-10-29T19:46:23.993Z,68092.72
2023-10-29T19:49:00.335Z,68092.72
2023-10-29T19:51:53.638Z,68092.72
2023-10-29T19:54:24.060Z,68092.72
2023-10-29T19:56:52.829Z,68092.72
2023-10-29T19:59:21.057Z,68092.72
2023-10-29T20:01:49.977Z,68092.72
2023-10-29T20:04:18.419Z,68092.72
2023-10-29T20:06:49.768Z,68092.72
2023-10-29T20:09:20.789Z,68092.72
2023-10-29T20:11:57.730Z,68092.72
2023-10-29T20:14:28.530Z,68092.72
2023-10-29T20:16:56.859Z,68092.72
2023-10-29T20:19:26.177Z,68092.72
2023-10-29T20:21:55.854Z,68092.72
2023-10-29T20:24:27.504Z,68092.72
2023-10-29T20:27:00.079Z,68092.72
2023-10-29T20:29:31.451Z,68092.72
2023-10-29T20:32:05.262Z,68092.72
2023-10-29T20:34:34.445Z,68092.72
2023-10-29T20:37:10.719Z,68092.72
2023-10-29T20:39:43.132Z,68092.72
2023-10-29T20:42:14.085Z,68092.72
2023-10-29T20:44:50.013Z,68092.72
2023-10-29T20:47:27.459Z,68092.72
2023-10-29T20:49:55.980Z,68092.72
2023-10-29T20:52:24.402Z,68092.72
2023-10-29T20:54:55.325Z,98831.66
2023-10-29T20:57:23.851Z,98825.16
2023-10-29T20:59:52.455Z,98853.34
2023-10-29T21:02:20.779Z,98859.34
2023-10-29T21:04:54.921Z,98857.03
2023-10-29T21:07:32.128Z,98860.25
2023-10-29T21:10:52.650Z,98870.31
2023-10-29T21:13:21.071Z,98869.59
2023-10-29T21:15:51.208Z,98884.44
2023-10-29T21:18:20.020Z,98871.91
2023-10-29T21:20:58.011Z,98890.66
2023-10-29T21:23:35.266Z,98885.78
2023-10-29T21:26:03.946Z,98881.91
2023-10-29T21:28:42.271Z,98893.38
2023-10-29T21:31:23.381Z,98902.34
2023-10-29T21:33:52.865Z,98886.69
2023-10-29T21:36:27.231Z,98896.34
2023-10-29T21:38:55.787Z,98899.78
2023-10-29T21:41:28.196Z,98899.69
2023-10-29T21:44:01.648Z,98904.59
2023-10-29T21:46:30.218Z,98904.13
2023-10-29T21:48:58.848Z,98906.47
2023-10-29T21:51:27.352Z,98899.34
2023-10-29T21:53:56.676Z,98906.84
2023-10-29T21:56:27.943Z,98920.88
2023-10-29T21:58:56.620Z,98918.00
2023-10-29T22:01:35.122Z,98932.88
2023-10-29T22:04:09.426Z,98922.28
2023-10-29T22:06:37.783Z,98933.63
2023-10-29T22:09:06.086Z,98936.06
2023-10-29T22:11:37.019Z,98941.22
2023-10-29T22:14:07.074Z,98937.41
2023-10-29T22:16:41.452Z,98932.94
2023-10-29T22:19:19.529Z,98948.72
2023-10-29T22:21:50.902Z,98944.09
2023-10-29T22:24:21.943Z,98965.03
2023-10-29T22:26:53.259Z,98949.84
2023-10-29T22:29:23.072Z,98962.06
2023-10-29T22:31:51.345Z,98970.75
2023-10-29T22:34:48.133Z,98965.91
2023-10-29T22:37:19.510Z,98967.53
2023-10-29T22:39:49.556Z,98980.44
2023-10-29T22:42:18.039Z,98986.03
2023-10-29T22:44:48.197Z,98992.94
2023-10-29T22:47:16.588Z,98984.72
2023-10-29T22:49:47.845Z,98986.88
2023-10-29T22:52:22.233Z,98990.53
2023-10-29T22:54:50.623Z,98988.41
2023-10-29T22:57:25.150Z,99008.13
2023-10-29T22:59:53.562Z,98999.34
2023-10-29T23:02:21.988Z,99011.50
2023-10-29T23:04:55.240Z,99010.13
2023-10-29T23:07:23.653Z,99012.34
2023-10-29T23:09:51.893Z,99026.59
2023-10-29T23:12:23.691Z,99017.91
2023-10-29T23:14:52.895Z,99034.53
2023-10-29T23:17:22.349Z,99025.47
2023-10-29T23:20:06.559Z,99034.13
2023-10-29T23:22:40.859Z,99032.88
2023-10-29T23:25:14.577Z,99042.22
2023-10-29T23:27:45.347Z,99047.25
2023-10-29T23:30:13.776Z,99059.69
2023-10-29T23:32:47.625Z,99056.47
2023-10-29T23:35:20.860Z,99053.47
2023-10-29T23:37:49.247Z,99061.28
2023-10-29T23:40:21.684Z,99042.28
2023-10-29T23:42:49.925Z,99060.09
2023-10-29T23:45:20.889Z,99051.00
2023-10-29T23:47:48.762Z,99069.53
2023-10-29T23:50:22.920Z,99064.53
2023-10-29T23:52:51.732Z,99063.56
2023-10-29T23:55:20.173Z,99066.81
2023-10-29T23:57:51.152Z,99067.06
